Time;durP1;ratioP1;P1;durP2;ratioP2;P2;SDS_P1;SDS_P2;PMS_P1;PMS_P2;Temp;Humidity;BMP_temperature;BMP_pressure;BME280_temperature;BME280_humidity;BME280_pressure;Samples;Min_cycle;Max_cycle;Signal;HPM_P1;HPM_P2
2024/04/11 00:00:20;;;;;;;;;67.25;45.50;;;;;;;;10452186;28;43757;-62
2024/04/11 00:05:24;;;;;;;;;66.00;42.50;;;;;;;;10425049;27;48701;-61
2024/04/11 00:10:29;;;;;;;;;66.00;42.75;;;;;;;;10442615;28;42958;-61
2024/04/11 00:15:33;;;;;;;;;62.00;42.00;;;;;;;;10443042;28;43596;-59
2024/04/11 00:20:37;;;;;;;;;67.50;42.75;;;;;;;;10412043;28;43750;-61
2024/04/11 00:25:42;;;;;;;;;63.75;42.50;;;;;;;;10451342;28;49558;-60
2024/04/11 00:30:45;;;;;;;;;69.00;46.25;;;;;;;;10446944;28;43552;-60
2024/04/11 00:35:52;;;;;;;;;65.75;44.25;;;;;;;;10452764;28;48530;-59
2024/04/11 00:40:58;;;;;;;;;69.25;47.25;;;;;;;;10406084;28;48938;-59
2024/04/11 00:46:01;;;;;;;;;70.00;44.00;;;;;;;;10452435;28;49404;-59
2024/04/11 00:51:04;;;;;;;;;66.00;46.50;;;;;;;;10460422;28;49491;-60
2024/04/11 00:56:08;;;;;;;;;69.75;46.25;;;;;;;;10459443;28;42994;-59
2024/04/11 01:01:11;;;;;;;;;68.00;47.25;;;;;;;;10458937;28;43572;-63
2024/04/11 01:06:14;;;;;;;;;69.50;45.00;;;;;;;;10457204;28;43122;-59
2024/04/11 01:11:18;;;;;;;;;62.00;45.00;;;;;;;;10455720;28;43746;-59
2024/04/11 01:16:23;;;;;;;;;65.00;43.75;;;;;;;;10454169;28;44499;-58
2024/04/11 01:21:26;;;;;;;;;67.25;44.50;;;;;;;;10454454;28;43111;-61
2024/04/11 01:26:31;;;;;;;;;61.00;43.00;;;;;;;;10453612;28;43047;-61
2024/04/11 01:31:34;;;;;;;;;68.75;45.25;;;;;;;;10454884;28;43057;-58
2024/04/11 01:36:38;;;;;;;;;64.00;43.25;;;;;;;;10455610;28;43488;-59
2024/04/11 01:41:41;;;;;;;;;63.50;42.75;;;;;;;;10452406;28;43791;-59
2024/04/11 01:46:45;;;;;;;;;60.00;40.75;;;;;;;;10459739;27;43487;-59
2024/04/11 01:51:48;;;;;;;;;60.25;42.25;;;;;;;;10457781;27;42938;-59
2024/04/11 01:56:53;;;;;;;;;64.75;44.25;;;;;;;;10439639;28;43465;-60
2024/04/11 02:01:56;;;;;;;;;66.00;41.00;;;;;;;;10455026;27;43468;-62
2024/04/11 02:07:04;;;;;;;;;64.25;43.75;;;;;;;;10458574;27;49949;-62
2024/04/11 02:12:08;;;;;;;;;56.50;38.00;;;;;;;;10424148;28;43028;-59
2024/04/11 02:17:12;;;;;;;;;63.00;42.25;;;;;;;;10412821;28;43079;-60
2024/04/11 02:22:17;;;;;;;;;59.75;41.75;;;;;;;;10413608;28;44025;-61
2024/04/11 02:27:23;;;;;;;;;56.75;40.50;;;;;;;;10412229;28;44099;-61
2024/04/11 02:32:27;;;;;;;;;60.75;40.25;;;;;;;;10452902;28;43517;-60
2024/04/11 02:37:31;;;;;;;;;59.50;41.50;;;;;;;;10446704;28;44849;-59
2024/04/11 02:42:38;;;;;;;;;59.75;40.25;;;;;;;;10454726;28;43723;-59
2024/04/11 02:47:42;;;;;;;;;57.25;39.00;;;;;;;;10455670;28;43134;-59
2024/04/11 02:52:45;;;;;;;;;54.25;38.25;;;;;;;;10447310;28;42927;-62
2024/04/11 02:57:51;;;;;;;;;57.00;37.75;;;;;;;;10451470;28;43045;-62
2024/04/11 03:02:55;;;;;;;;;59.50;39.00;;;;;;;;10453329;28;43082;-62
2024/04/11 03:07:58;;;;;;;;;55.75;36.00;;;;;;;;10417448;28;43689;-62
2024/04/11 03:13:03;;;;;;;;;55.75;38.25;;;;;;;;10412453;28;43080;-61
2024/04/11 03:18:09;;;;;;;;;55.25;38.25;;;;;;;;10412686;28;44962;-63
2024/04/11 03:23:13;;;;;;;;;52.75;34.50;;;;;;;;10414388;28;42991;-65
2024/04/11 03:28:22;;;;;;;;;57.00;36.75;;;;;;;;10395975;28;43753;-64
2024/04/11 03:33:26;;;;;;;;;58.50;37.50;;;;;;;;10412282;28;43171;-64
2024/04/11 03:38:29;;;;;;;;;55.75;36.00;;;;;;;;10411139;28;43032;-64
2024/04/11 03:43:33;;;;;;;;;56.00;36.00;;;;;;;;10411483;28;43151;-61
2024/04/11 03:48:40;;;;;;;;;52.50;35.50;;;;;;;;10410295;28;43089;-63
2024/04/11 03:53:44;;;;;;;;;55.75;36.00;;;;;;;;10410905;28;43515;-65
2024/04/11 03:58:48;;;;;;;;;54.75;35.50;;;;;;;;10410036;28;44394;-60
2024/04/11 04:03:53;;;;;;;;;51.75;34.00;;;;;;;;10410838;28;43007;-59
2024/04/11 04:08:57;;;;;;;;;53.25;35.25;;;;;;;;10427544;28;44494;-60
2024/04/11 04:14:02;;;;;;;;;49.50;31.50;;;;;;;;10451369;28;43437;-61
2024/04/11 04:19:07;;;;;;;;;49.50;32.50;;;;;;;;10451717;28;43598;-61
2024/04/11 04:24:12;;;;;;;;;50.50;32.25;;;;;;;;10438285;28;42992;-62
2024/04/11 04:29:17;;;;;;;;;51.50;34.50;;;;;;;;10446331;28;43068;-60
2024/04/11 04:34:21;;;;;;;;;74.25;50.00;;;;;;;;10457525;28;43618;-61
2024/04/11 04:39:30;;;;;;;;;70.50;52.00;;;;;;;;10455521;28;42976;-61
2024/04/11 04:44:35;;;;;;;;;79.00;57.00;;;;;;;;10460189;28;44630;-60
2024/04/11 04:49:38;;;;;;;;;79.25;58.00;;;;;;;;10459070;28;43032;-60
2024/04/11 04:54:43;;;;;;;;;83.75;60.75;;;;;;;;10458665;28;43924;-60
2024/04/11 04:59:46;;;;;;;;;86.50;65.50;;;;;;;;10459410;28;43031;-60
2024/04/11 05:04:50;;;;;;;;;90.50;64.75;;;;;;;;10441115;28;43807;-60
2024/04/11 05:09:54;;;;;;;;;85.00;66.25;;;;;;;;10366672;28;44219;-59
2024/04/11 05:14:57;;;;;;;;;88.50;70.00;;;;;;;;10383985;28;42950;-59
2024/04/11 05:20:13;;;;;;;;;100.75;76.00;;;;;;;;10383125;28;43838;-59
2024/04/11 05:25:21;;;;;;;;;97.25;73.25;;;;;;;;10471142;28;48792;-59
2024/04/11 05:30:27;;;;;;;;;109.50;81.25;;;;;;;;10479495;28;49646;-60
2024/04/11 05:35:30;;;;;;;;;100.25;80.00;;;;;;;;10458086;28;42891;-61
2024/04/11 05:40:34;;;;;;;;;93.75;78.25;;;;;;;;10474751;27;43010;-60
2024/04/11 05:45:38;;;;;;;;;104.50;80.75;;;;;;;;10464963;27;43141;-61
2024/04/11 05:50:43;;;;;;;;;96.25;74.00;;;;;;;;10500500;27;44175;-61
2024/04/11 05:55:47;;;;;;;;;95.50;69.75;;;;;;;;10476070;28;43601;-61
2024/04/11 06:00:51;;;;;;;;;83.00;63.25;;;;;;;;10459338;28;43590;-60
2024/04/11 06:05:55;;;;;;;;;83.75;64.75;;;;;;;;10453692;28;43039;-61
2024/04/11 06:10:59;;;;;;;;;83.50;68.25;;;;;;;;10453843;28;43039;-62
2024/04/11 06:16:03;;;;;;;;;82.00;62.75;;;;;;;;10454595;28;44063;-65
2024/04/11 06:21:11;;;;;;;;;83.25;64.50;;;;;;;;10450633;28;43341;-66
2024/04/11 06:26:16;;;;;;;;;95.50;75.25;;;;;;;;10454434;28;43206;-61
2024/04/11 06:31:24;;;;;;;;;86.00;69.50;;;;;;;;10448425;28;43014;-59
2024/04/11 06:36:27;;;;;;;;;80.00;61.00;;;;;;;;10429505;28;43107;-62
2024/04/11 06:41:31;;;;;;;;;82.00;60.75;;;;;;;;10452256;28;43930;-60
2024/04/11 06:46:35;;;;;;;;;79.25;61.50;;;;;;;;10453300;28;43017;-60
2024/04/11 06:51:39;;;;;;;;;77.00;59.25;;;;;;;;10457480;28;43231;-63
2024/04/11 06:56:45;;;;;;;;;78.00;60.75;;;;;;;;10456988;28;43493;-61
2024/04/11 07:01:48;;;;;;;;;76.25;58.00;;;;;;;;10453326;28;44575;-61
2024/04/11 07:06:57;;;;;;;;;77.50;56.75;;;;;;;;10460639;28;43120;-63
2024/04/11 07:12:04;;;;;;;;;71.75;52.00;;;;;;;;10462846;28;42990;-64
2024/04/11 07:17:14;;;;;;;;;76.75;55.50;;;;;;;;10461856;28;43118;-60
2024/04/11 07:22:18;;;;;;;;;73.50;54.50;;;;;;;;10461248;28;43766;-61
2024/04/11 07:27:23;;;;;;;;;73.50;51.25;;;;;;;;10472209;28;44553;-61
2024/04/11 07:32:30;;;;;;;;;88.25;68.75;;;;;;;;10479741;27;43035;-60
2024/04/11 07:37:33;;;;;;;;;85.25;67.75;;;;;;;;10454818;28;43355;-61
2024/04/11 07:42:54;;;;;;;;;83.50;59.00;;;;;;;;10472217;27;44264;-61
2024/04/11 07:47:59;;;;;;;;;73.75;54.00;;;;;;;;10486874;28;42967;-61
2024/04/11 07:53:06;;;;;;;;;74.25;57.75;;;;;;;;10474232;28;43048;-60
2024/04/11 07:58:14;;;;;;;;;75.25;52.00;;;;;;;;10494216;28;43243;-61
2024/04/11 08:03:20;;;;;;;;;76.75;53.75;;;;;;;;10439574;28;43526;-61
2024/04/11 08:08:24;;;;;;;;;74.50;52.25;;;;;;;;10487856;28;43713;-61
2024/04/11 08:13:30;;;;;;;;;74.00;49.75;;;;;;;;10495237;28;43281;-61
2024/04/11 08:18:34;;;;;;;;;72.75;50.00;;;;;;;;10493024;27;42960;-61
2024/04/11 08:23:43;;;;;;;;;70.75;51.00;;;;;;;;10486374;27;42912;-61
2024/04/11 08:28:46;;;;;;;;;73.75;52.00;;;;;;;;10493810;28;42962;-62
2024/04/11 08:33:49;;;;;;;;;74.50;50.00;;;;;;;;10491885;28;42918;-60
2024/04/11 08:38:54;;;;;;;;;73.25;51.50;;;;;;;;10490753;27;43015;-61
2024/04/11 08:43:59;;;;;;;;;68.50;47.25;;;;;;;;10477256;27;43659;-61
2024/04/11 08:49:05;;;;;;;;;69.25;49.50;;;;;;;;10495968;28;43326;-61
2024/04/11 08:54:10;;;;;;;;;71.50;51.25;;;;;;;;10494125;28;43569;-60
2024/04/11 08:59:16;;;;;;;;;82.50;61.75;;;;;;;;10507105;27;42975;-60
2024/04/11 09:04:20;;;;;;;;;76.75;52.00;;;;;;;;10488930;28;43770;-59
2024/04/11 09:09:23;;;;;;;;;76.00;55.50;;;;;;;;10455634;28;43006;-60
2024/04/11 09:14:27;;;;;;;;;77.00;53.25;;;;;;;;10453619;28;44071;-60
2024/04/11 09:19:39;;;;;;;;;75.00;54.50;;;;;;;;10455922;28;43192;-60
2024/04/11 09:24:44;;;;;;;;;77.50;53.75;;;;;;;;10456966;28;43499;-60
2024/04/11 09:29:48;;;;;;;;;74.50;52.25;;;;;;;;10457200;28;43754;-60
2024/04/11 09:34:53;;;;;;;;;76.25;52.00;;;;;;;;10450077;28;43374;-60
2024/04/11 09:40:07;;;;;;;;;75.50;52.75;;;;;;;;10457848;28;42912;-61
2024/04/11 09:45:18;;;;;;;;;76.50;52.75;;;;;;;;10452514;28;50000;-62
2024/04/11 09:50:24;;;;;;;;;72.75;50.25;;;;;;;;10442436;28;43662;-62
2024/04/11 09:55:37;;;;;;;;;71.50;51.25;;;;;;;;10436923;28;44210;-61
2024/04/11 10:01:04;;;;;;;;;70.75;51.00;;;;;;;;10439942;28;42924;-62
2024/04/11 10:06:20;;;;;;;;;72.75;49.25;;;;;;;;10460441;27;49569;-62
2024/04/11 10:11:22;;;;;;;;;73.75;50.25;;;;;;;;10509779;27;42990;-62
2024/04/11 10:16:29;;;;;;;;;67.50;48.00;;;;;;;;10500050;27;44123;-62
2024/04/11 10:21:38;;;;;;;;;66.50;47.25;;;;;;;;10510693;27;42972;-61
2024/04/11 10:26:47;;;;;;;;;68.00;46.25;;;;;;;;10507347;27;42853;-62
2024/04/11 10:31:56;;;;;;;;;67.25;49.00;;;;;;;;10482943;27;43927;-61
2024/04/11 10:37:07;;;;;;;;;70.25;50.00;;;;;;;;10511611;27;43078;-62
2024/04/11 10:42:13;;;;;;;;;69.75;48.50;;;;;;;;10514645;27;44178;-61
2024/04/11 10:47:17;;;;;;;;;71.75;47.75;;;;;;;;10514054;27;44292;-62
2024/04/11 10:52:21;;;;;;;;;67.50;46.25;;;;;;;;10521349;27;43071;-62
2024/04/11 10:57:27;;;;;;;;;68.00;47.00;;;;;;;;10512236;27;42989;-61
2024/04/11 11:02:32;;;;;;;;;75.75;51.00;;;;;;;;10510709;27;43106;-60
2024/04/11 11:07:40;;;;;;;;;77.25;53.00;;;;;;;;10518648;27;44935;-60
2024/04/11 11:12:44;;;;;;;;;74.25;53.75;;;;;;;;10505170;28;43773;-60
2024/04/11 11:17:50;;;;;;;;;72.25;50.75;;;;;;;;10495966;28;44022;-60
2024/04/11 11:22:58;;;;;;;;;74.75;52.50;;;;;;;;10495966;28;42950;-63
2024/04/11 11:28:02;;;;;;;;;74.25;51.50;;;;;;;;10495505;28;43031;-59
2024/04/11 11:33:07;;;;;;;;;73.75;51.75;;;;;;;;10524745;27;43436;-59
2024/04/11 11:38:11;;;;;;;;;71.75;51.00;;;;;;;;10494013;27;43802;-59
2024/04/11 11:43:16;;;;;;;;;68.50;48.50;;;;;;;;10495022;28;43775;-62
2024/04/11 11:48:27;;;;;;;;;72.75;48.00;;;;;;;;10492481;28;42991;-60
2024/04/11 11:53:45;;;;;;;;;72.25;48.00;;;;;;;;10490202;28;43228;-61
2024/04/11 11:58:50;;;;;;;;;67.50;46.25;;;;;;;;10493064;27;43031;-61
2024/04/11 12:03:55;;;;;;;;;69.50;48.50;;;;;;;;10484757;28;43009;-62
2024/04/11 12:09:10;;;;;;;;;66.75;46.25;;;;;;;;10444504;28;43462;-61
2024/04/11 12:14:22;;;;;;;;;71.75;48.00;;;;;;;;10429700;28;42933;-59
2024/04/11 12:19:28;;;;;;;;;66.50;45.25;;;;;;;;10445883;28;44027;-58
2024/04/11 12:24:31;;;;;;;;;69.25;48.00;;;;;;;;10414765;28;43003;-59
2024/04/11 12:29:40;;;;;;;;;71.25;49.50;;;;;;;;10446160;28;43204;-60
2024/04/11 12:34:45;;;;;;;;;67.00;48.00;;;;;;;;10439451;28;43119;-59
2024/04/11 12:39:55;;;;;;;;;70.00;49.00;;;;;;;;10431451;28;43203;-59
2024/04/11 12:45:07;;;;;;;;;72.50;49.00;;;;;;;;10450842;28;44031;-59
2024/04/11 12:50:14;;;;;;;;;78.25;52.25;;;;;;;;10458240;28;43361;-60
2024/04/11 12:55:24;;;;;;;;;74.50;50.50;;;;;;;;10456864;28;43139;-60
2024/04/11 13:00:34;;;;;;;;;73.25;50.50;;;;;;;;10454329;28;44770;-60
2024/04/11 13:05:54;;;;;;;;;74.50;50.50;;;;;;;;10459353;28;43741;-59
2024/04/11 13:11:06;;;;;;;;;72.50;49.75;;;;;;;;10458539;28;49110;-59
2024/04/11 13:16:10;;;;;;;;;72.75;48.00;;;;;;;;10458703;28;50182;-59
2024/04/11 13:21:30;;;;;;;;;72.50;51.75;;;;;;;;10458443;28;44135;-59
2024/04/11 13:26:39;;;;;;;;;72.75;50.50;;;;;;;;10454632;28;43004;-59
2024/04/11 13:31:45;;;;;;;;;72.50;50.25;;;;;;;;10459503;28;43570;-59
2024/04/11 13:36:58;;;;;;;;;70.50;47.75;;;;;;;;10458034;28;42974;-59
2024/04/11 13:42:01;;;;;;;;;74.25;50.75;;;;;;;;10459025;28;43594;-59
2024/04/11 13:47:09;;;;;;;;;76.00;51.50;;;;;;;;10459237;28;43086;-59
2024/04/11 13:52:19;;;;;;;;;69.25;49.50;;;;;;;;10458054;28;43575;-59
2024/04/11 13:57:23;;;;;;;;;71.75;52.00;;;;;;;;10457047;28;42956;-59
2024/04/11 14:02:46;;;;;;;;;71.50;48.25;;;;;;;;10457015;28;43973;-59
2024/04/11 14:07:52;;;;;;;;;70.50;50.75;;;;;;;;10480587;27;43299;-59
2024/04/11 14:12:55;;;;;;;;;70.50;49.50;;;;;;;;10499688;27;43118;-59
2024/04/11 14:18:02;;;;;;;;;75.00;52.00;;;;;;;;10500072;27;43940;-59
2024/04/11 14:23:22;;;;;;;;;73.50;51.75;;;;;;;;10493610;27;43008;-59
2024/04/11 14:28:26;;;;;;;;;76.25;51.75;;;;;;;;10456855;28;43370;-59
2024/04/11 14:39:05;;;;;;;;;72.50;51.50;;;;;;;;10401298;28;43590;-59
2024/04/11 14:44:08;;;;;;;;;71.50;50.50;;;;;;;;10456270;28;42994;-59
2024/04/11 14:49:10;;;;;;;;;74.00;51.75;;;;;;;;10454757;28;42941;-59
2024/04/11 14:54:25;;;;;;;;;71.75;49.25;;;;;;;;10455763;28;43034;-59
2024/04/11 14:59:30;;;;;;;;;73.00;50.75;;;;;;;;10455245;28;42977;-59
2024/04/11 15:04:33;;;;;;;;;70.25;50.25;;;;;;;;10451509;28;43011;-59
2024/04/11 15:09:39;;;;;;;;;70.25;50.25;;;;;;;;10494824;28;43021;-59
2024/04/11 15:14:45;;;;;;;;;74.25;50.00;;;;;;;;10497317;28;43615;-59
2024/04/11 15:19:51;;;;;;;;;70.00;48.00;;;;;;;;10497155;28;43609;-59
2024/04/11 15:24:59;;;;;;;;;78.50;50.50;;;;;;;;10488722;28;43493;-59
2024/04/11 15:30:06;;;;;;;;;74.25;52.00;;;;;;;;10496457;28;43003;-59
2024/04/11 15:35:09;;;;;;;;;73.00;50.75;;;;;;;;10497934;28;48519;-59
2024/04/11 15:40:22;;;;;;;;;72.25;51.25;;;;;;;;10496530;28;43595;-59
2024/04/11 15:45:29;;;;;;;;;74.25;50.75;;;;;;;;10497042;28;42993;-59
2024/04/11 15:50:36;;;;;;;;;74.75;50.00;;;;;;;;10513371;28;42953;-59
2024/04/11 15:55:52;;;;;;;;;74.00;52.25;;;;;;;;10463167;28;50285;-59
2024/04/11 16:00:56;;;;;;;;;78.75;53.25;;;;;;;;10495395;28;48650;-59
2024/04/11 16:06:01;;;;;;;;;73.75;50.75;;;;;;;;10504013;27;44189;-59
2024/04/11 16:11:05;;;;;;;;;74.25;52.75;;;;;;;;10488958;28;48614;-59
2024/04/11 16:16:10;;;;;;;;;77.00;54.25;;;;;;;;10495703;28;43538;-59
2024/04/11 16:21:14;;;;;;;;;73.75;52.00;;;;;;;;10492213;28;42954;-60
2024/04/11 16:26:26;;;;;;;;;72.25;52.00;;;;;;;;10490110;27;43809;-59
2024/04/11 16:31:37;;;;;;;;;74.00;52.00;;;;;;;;10495733;28;43474;-59
2024/04/11 16:36:47;;;;;;;;;74.75;53.00;;;;;;;;10494369;28;43151;-59
2024/04/11 16:41:51;;;;;;;;;77.25;54.25;;;;;;;;10494647;28;42990;-59
2024/04/11 16:46:55;;;;;;;;;75.50;55.25;;;;;;;;10494712;28;43072;-59
2024/04/11 16:51:59;;;;;;;;;82.00;57.50;;;;;;;;10494071;27;43969;-59
2024/04/11 16:57:05;;;;;;;;;80.75;60.50;;;;;;;;10486527;27;43074;-59
2024/04/11 17:02:09;;;;;;;;;76.75;57.25;;;;;;;;10494362;27;42993;-59
2024/04/11 17:07:24;;;;;;;;;83.75;57.75;;;;;;;;10494885;27;42987;-59
2024/04/11 17:12:32;;;;;;;;;76.75;53.25;;;;;;;;10529845;27;44365;-59
2024/04/11 17:28:12;;;;;;;;;88.75;68.50;;;;;;;;10495184;27;42974;-59
2024/04/11 17:33:41;;;;;;;;;85.50;65.50;;;;;;;;10500561;28;43774;-59
2024/04/11 17:44:14;;;;;;;;;81.25;65.00;;;;;;;;10500319;28;44114;-59
2024/04/11 17:49:26;;;;;;;;;92.50;67.00;;;;;;;;10500230;28;42998;-59
2024/04/11 17:54:34;;;;;;;;;83.50;63.00;;;;;;;;10500402;28;43769;-59
2024/04/11 17:59:38;;;;;;;;;85.50;67.50;;;;;;;;10499684;28;44194;-59
2024/04/11 18:04:45;;;;;;;;;91.75;64.75;;;;;;;;10499184;28;43833;-59
2024/04/11 18:09:53;;;;;;;;;95.50;70.75;;;;;;;;10494594;28;43768;-59
2024/04/11 18:15:01;;;;;;;;;88.25;68.25;;;;;;;;10491112;28;43028;-59
2024/04/11 18:20:10;;;;;;;;;94.25;65.75;;;;;;;;10499911;28;43493;-60
2024/04/11 18:25:16;;;;;;;;;94.25;70.50;;;;;;;;10498441;28;43011;-59
2024/04/11 18:30:23;;;;;;;;;88.25;66.25;;;;;;;;10499423;28;43816;-59
2024/04/11 18:35:26;;;;;;;;;96.00;71.75;;;;;;;;10498481;27;44066;-59
2024/04/11 18:45:34;;;;;;;;;97.25;71.75;;;;;;;;10498932;27;42915;-60
2024/04/11 18:50:38;;;;;;;;;101.75;71.50;;;;;;;;10498538;27;44044;-60
2024/04/11 18:55:49;;;;;;;;;101.75;75.75;;;;;;;;10497842;27;43268;-59
2024/04/11 19:00:56;;;;;;;;;97.50;77.25;;;;;;;;10498082;28;43077;-59
2024/04/11 19:06:05;;;;;;;;;106.00;78.25;;;;;;;;10497012;28;48410;-59
2024/04/11 19:11:12;;;;;;;;;97.75;74.25;;;;;;;;10499076;28;42985;-59
2024/04/11 19:16:18;;;;;;;;;105.75;80.75;;;;;;;;10498168;28;43114;-59
2024/04/11 19:21:22;;;;;;;;;100.50;78.50;;;;;;;;10497709;28;43142;-59
2024/04/11 19:26:26;;;;;;;;;101.25;78.00;;;;;;;;10497279;28;42997;-59
2024/04/11 19:31:38;;;;;;;;;112.75;80.00;;;;;;;;10497305;28;43670;-59
2024/04/11 19:36:45;;;;;;;;;100.50;76.00;;;;;;;;10497476;28;43951;-59
2024/04/11 19:41:49;;;;;;;;;108.00;83.25;;;;;;;;10497832;28;43251;-59
2024/04/11 19:46:58;;;;;;;;;104.75;79.00;;;;;;;;10496767;27;42915;-59
2024/04/11 19:52:02;;;;;;;;;97.75;74.75;;;;;;;;10490951;27;43729;-59
2024/04/11 19:57:06;;;;;;;;;113.25;80.75;;;;;;;;10495680;28;43797;-59
2024/04/11 20:02:12;;;;;;;;;107.50;85.50;;;;;;;;10496494;27;43071;-59
2024/04/11 20:07:16;;;;;;;;;108.00;84.25;;;;;;;;10494393;28;43741;-59
2024/04/11 20:12:29;;;;;;;;;113.25;85.75;;;;;;;;10496679;28;43338;-59
2024/04/11 20:17:33;;;;;;;;;107.75;83.00;;;;;;;;10495650;28;44130;-59
2024/04/11 20:22:38;;;;;;;;;109.50;81.75;;;;;;;;10490945;28;49514;-59
2024/04/11 20:27:46;;;;;;;;;106.75;82.00;;;;;;;;10494852;28;43825;-59
2024/04/11 20:32:54;;;;;;;;;113.75;88.25;;;;;;;;10495528;28;42965;-59
2024/04/11 20:38:15;;;;;;;;;108.25;86.75;;;;;;;;10495253;28;44050;-59
2024/04/11 20:43:36;;;;;;;;;111.00;86.50;;;;;;;;10495348;28;43088;-59
2024/04/11 20:48:53;;;;;;;;;104.00;80.50;;;;;;;;10494129;28;43471;-59
2024/04/11 21:36:53;;;;;;;;;119.75;92.75;;;;;;;;10457779;28;43555;-61
2024/04/11 21:42:00;;;;;;;;;120.25;91.00;;;;;;;;10456945;28;43014;-60
2024/04/11 21:47:12;;;;;;;;;115.00;94.75;;;;;;;;10457283;28;43607;-60
2024/04/11 21:52:18;;;;;;;;;114.75;87.25;;;;;;;;10457894;28;43038;-60
2024/04/11 21:57:26;;;;;;;;;110.00;86.00;;;;;;;;10457996;27;43241;-60
2024/04/11 22:02:30;;;;;;;;;115.50;91.25;;;;;;;;10457554;28;43072;-59
2024/04/11 22:07:34;;;;;;;;;111.00;83.75;;;;;;;;10481183;27;43672;-58
2024/04/11 22:12:41;;;;;;;;;116.75;87.25;;;;;;;;10497383;27;42947;-59
2024/04/11 22:17:52;;;;;;;;;112.00;86.00;;;;;;;;10503003;27;42917;-59
2024/04/11 22:23:00;;;;;;;;;110.75;84.00;;;;;;;;10477867;27;43035;-59
2024/04/11 22:28:03;;;;;;;;;115.50;90.25;;;;;;;;10487522;27;42938;-58
2024/04/11 22:33:17;;;;;;;;;109.25;85.00;;;;;;;;10479801;27;43562;-59
2024/04/11 22:38:25;;;;;;;;;106.25;87.25;;;;;;;;10509662;27;43718;-59
2024/04/11 22:43:34;;;;;;;;;114.25;85.00;;;;;;;;10491118;27;44369;-59
2024/04/11 22:48:43;;;;;;;;;98.75;77.50;;;;;;;;10511524;27;43744;-61
2024/04/11 22:53:49;;;;;;;;;105.75;85.00;;;;;;;;10485786;27;42976;-59
2024/04/11 22:58:58;;;;;;;;;104.50;80.50;;;;;;;;10487189;28;43005;-59
2024/04/11 23:04:04;;;;;;;;;109.50;80.75;;;;;;;;10502466;27;43431;-59
2024/04/11 23:09:09;;;;;;;;;104.75;79.75;;;;;;;;10494536;28;43298;-59
2024/04/11 23:14:16;;;;;;;;;105.50;81.25;;;;;;;;10496707;27;42971;-59
2024/04/11 23:19:24;;;;;;;;;107.75;82.50;;;;;;;;10487768;27;44568;-68
2024/04/11 23:24:28;;;;;;;;;107.75;79.25;;;;;;;;10491203;27;43589;-60
2024/04/11 23:29:34;;;;;;;;;100.25;75.25;;;;;;;;10493262;27;43150;-60
2024/04/11 23:34:39;;;;;;;;;94.50;68.50;;;;;;;;10468314;28;44030;-60
2024/04/11 23:39:45;;;;;;;;;89.25;71.25;;;;;;;;10490421;28;43791;-61
2024/04/11 23:44:48;;;;;;;;;85.50;63.00;;;;;;;;10488893;28;44007;-59
2024/04/11 23:49:51;;;;;;;;;83.00;62.25;;;;;;;;10494691;28;43637;-60
2024/04/11 23:54:56;;;;;;;;;78.75;58.00;;;;;;;;10487110;28;43604;-59
